sensor_id;sensor_type;location;lat;lon;timestamp;temperature;humidity
16180;DHT22;8196;49.428;10.906;2022-12-18T08:27:16;0.60;99.90
16180;DHT22;8196;49.428;10.906;2022-12-18T08:29:58;-3.20;99.90
16180;DHT22;8196;49.428;10.906;2022-12-18T08:32:26;-6.30;99.90
16180;DHT22;8196;49.428;10.906;2022-12-18T08:34:53;-3.20;99.90
16180;DHT22;8196;49.428;10.906;2022-12-18T08:37:20;-3.10;99.90
16180;DHT22;8196;49.428;10.906;2022-12-18T08:39:47;-3.20;99.90
16180;DHT22;8196;49.428;10.906;2022-12-18T08:45:01;-3.00;99.90
16180;DHT22;8196;49.428;10.906;2022-12-18T08:47:28;-2.90;99.90
16180;DHT22;8196;49.428;10.906;2022-12-18T08:49:54;-2.80;99.90
16180;DHT22;8196;49.428;10.906;2022-12-18T08:52:21;-2.80;99.90
16180;DHT22;8196;49.428;10.906;2022-12-18T08:54:48;-2.70;99.90
16180;DHT22;8196;49.428;10.906;2022-12-18T08:57:15;-2.60;99.90
16180;DHT22;8196;49.428;10.906;2022-12-18T08:59:42;-2.50;99.90
16180;DHT22;8196;49.428;10.906;2022-12-18T09:02:12;-2.50;99.90
16180;DHT22;8196;49.428;10.906;2022-12-18T09:07:06;-2.40;99.90
16180;DHT22;8196;49.428;10.906;2022-12-18T09:09:33;-2.40;99.90
16180;DHT22;8196;49.428;10.906;2022-12-18T09:11:59;-2.20;99.90
16180;DHT22;8196;49.428;10.906;2022-12-18T09:14:26;-2.20;99.90
16180;DHT22;8196;49.428;10.906;2022-12-18T09:16:53;-2.20;99.90
16180;DHT22;8196;49.428;10.906;2022-12-18T09:19:20;-2.20;99.90
16180;DHT22;8196;49.428;10.906;2022-12-18T09:21:46;-2.10;99.90
16180;DHT22;8196;49.428;10.906;2022-12-18T09:24:14;-2.20;99.90
16180;DHT22;8196;49.428;10.906;2022-12-18T09:26:42;-2.20;99.90
16180;DHT22;8196;49.428;10.906;2022-12-18T09:29:15;-2.20;99.90
16180;DHT22;8196;49.428;10.906;2022-12-18T09:31:44;-2.30;99.90
16180;DHT22;8196;49.428;10.906;2022-12-18T09:34:11;-2.20;99.90
16180;DHT22;8196;49.428;10.906;2022-12-18T09:36:38;-2.10;99.90
16180;DHT22;8196;49.428;10.906;2022-12-18T09:39:05;-2.10;99.90
16180;DHT22;8196;49.428;10.906;2022-12-18T09:46:43;-1.90;99.90
16180;DHT22;8196;49.428;10.906;2022-12-18T09:49:14;-1.80;99.90
16180;DHT22;8196;49.428;10.906;2022-12-18T09:51:51;-1.70;99.90
16180;DHT22;8196;49.428;10.906;2022-12-18T09:54:24;-1.60;99.90
16180;DHT22;8196;49.428;10.906;2022-12-18T09:56:53;-1.60;99.90
16180;DHT22;8196;49.428;10.906;2022-12-18T09:59:32;-1.50;99.90
16180;DHT22;8196;49.428;10.906;2022-12-18T10:04:39;-1.10;99.90
16180;DHT22;8196;49.428;10.906;2022-12-18T10:07:29;-1.00;99.90
16180;DHT22;8196;49.428;10.906;2022-12-18T10:13:09;-0.90;99.90
16180;DHT22;8196;49.428;10.906;2022-12-18T10:15:39;-0.90;99.90
16180;DHT22;8196;49.428;10.906;2022-12-18T10:18:12;-0.90;99.90
16180;DHT22;8196;49.428;10.906;2022-12-18T10:20:58;-0.90;99.90
16180;DHT22;8196;49.428;10.906;2022-12-18T10:23:37;-0.90;99.90
16180;DHT22;8196;49.428;10.906;2022-12-18T10:26:13;-1.00;99.90
16180;DHT22;8196;49.428;10.906;2022-12-18T10:28:43;-1.10;99.90
16180;DHT22;8196;49.428;10.906;2022-12-18T10:31:18;-1.10;99.90
16180;DHT22;8196;49.428;10.906;2022-12-18T10:33:45;-1.10;99.90
16180;DHT22;8196;49.428;10.906;2022-12-18T10:36:12;-1.10;99.90
16180;DHT22;8196;49.428;10.906;2022-12-18T10:38:39;-1.20;99.90
16180;DHT22;8196;49.428;10.906;2022-12-18T10:41:24;-1.10;99.90
16180;DHT22;8196;49.428;10.906;2022-12-18T10:44:14;-1.10;99.90
16180;DHT22;8196;49.428;10.906;2022-12-18T10:46:42;-1.00;99.90
16180;DHT22;8196;49.428;10.906;2022-12-18T10:49:21;-1.00;99.90
16180;DHT22;8196;49.428;10.906;2022-12-18T10:51:48;-0.90;99.90
16180;DHT22;8196;49.428;10.906;2022-12-18T10:54:18;-0.90;99.90
16180;DHT22;8196;49.428;10.906;2022-12-18T10:56:46;-0.90;99.90
16180;DHT22;8196;49.428;10.906;2022-12-18T10:59:15;-0.70;99.90
16180;DHT22;8196;49.428;10.906;2022-12-18T11:01:52;-0.60;99.90
16180;DHT22;8196;49.428;10.906;2022-12-18T11:06:55;-0.40;99.90
16180;DHT22;8196;49.428;10.906;2022-12-18T11:09:26;-0.30;99.90
16180;DHT22;8196;49.428;10.906;2022-12-18T11:11:56;-0.30;99.90
16180;DHT22;8196;49.428;10.906;2022-12-18T11:14:27;-0.30;99.90
16180;DHT22;8196;49.428;10.906;2022-12-18T11:16:55;-0.40;99.90
16180;DHT22;8196;49.428;10.906;2022-12-18T11:19:42;-0.30;99.90
16180;DHT22;8196;49.428;10.906;2022-12-18T11:22:26;-0.20;99.90
16180;DHT22;8196;49.428;10.906;2022-12-18T11:27:55;2.00;99.70
16180;DHT22;8196;49.428;10.906;2022-12-18T11:30:24;2.90;93.60
16180;DHT22;8196;49.428;10.906;2022-12-18T11:40:42;3.70;87.80
16180;DHT22;8196;49.428;10.906;2022-12-18T11:43:15;4.00;88.20
16180;DHT22;8196;49.428;10.906;2022-12-18T11:45:53;4.40;86.70
16180;DHT22;8196;49.428;10.906;2022-12-18T11:48:27;5.20;83.80
16180;DHT22;8196;49.428;10.906;2022-12-18T12:56:18;3.00;74.90
16180;DHT22;8196;49.428;10.906;2022-12-18T13:06:36;2.40;79.10
16180;DHT22;8196;49.428;10.906;2022-12-18T13:09:10;2.30;79.80
16180;DHT22;8196;49.428;10.906;2022-12-18T13:11:40;2.70;80.80
16180;DHT22;8196;49.428;10.906;2022-12-18T13:17:16;2.80;79.30
16180;DHT22;8196;49.428;10.906;2022-12-18T13:19:44;3.00;79.20
16180;DHT22;8196;49.428;10.906;2022-12-18T13:22:34;3.20;78.20
16180;DHT22;8196;49.428;10.906;2022-12-18T13:25:03;3.00;77.40
16180;DHT22;8196;49.428;10.906;2022-12-18T13:38:34;0.60;82.00
16180;DHT22;8196;49.428;10.906;2022-12-18T13:43:49;0.70;84.60
16180;DHT22;8196;49.428;10.906;2022-12-18T13:49:01;0.80;88.10
16180;DHT22;8196;49.428;10.906;2022-12-18T13:51:31;0.20;88.00
16180;DHT22;8196;49.428;10.906;2022-12-18T13:54:02;0.10;88.90
16180;DHT22;8196;49.428;10.906;2022-12-18T13:56:33;-0.10;90.00
16180;DHT22;8196;49.428;10.906;2022-12-18T13:59:11;-0.30;90.20
16180;DHT22;8196;49.428;10.906;2022-12-18T14:01:43;-0.50;90.90
16180;DHT22;8196;49.428;10.906;2022-12-18T14:04:21;-0.20;91.70
16180;DHT22;8196;49.428;10.906;2022-12-18T14:06:51;-0.50;91.80
16180;DHT22;8196;49.428;10.906;2022-12-18T14:09:27;-0.50;93.40
16180;DHT22;8196;49.428;10.906;2022-12-18T14:11:56;-0.60;93.60
16180;DHT22;8196;49.428;10.906;2022-12-18T14:14:46;-0.60;94.20
16180;DHT22;8196;49.428;10.906;2022-12-18T14:17:15;-0.70;94.50
16180;DHT22;8196;49.428;10.906;2022-12-18T14:19:46;-0.90;94.70
16180;DHT22;8196;49.428;10.906;2022-12-18T14:22:17;-1.10;94.10
16180;DHT22;8196;49.428;10.906;2022-12-18T14:24:44;-1.30;95.40
16180;DHT22;8196;49.428;10.906;2022-12-18T14:27:22;-1.00;98.20
16180;DHT22;8196;49.428;10.906;2022-12-18T14:29:49;-1.00;96.00
16180;DHT22;8196;49.428;10.906;2022-12-18T14:32:19;-1.90;97.00
16180;DHT22;8196;49.428;10.906;2022-12-18T14:34:49;-0.90;97.50
16180;DHT22;8196;49.428;10.906;2022-12-18T14:37:20;-1.60;99.90
16180;DHT22;8196;49.428;10.906;2022-12-18T14:39:57;-1.20;99.90
16180;DHT22;8196;49.428;10.906;2022-12-18T14:42:26;-1.60;99.90
16180;DHT22;8196;49.428;10.906;2022-12-18T14:45:31;0.00;99.90
16180;DHT22;8196;49.428;10.906;2022-12-18T14:48:08;-2.10;99.90
16180;DHT22;8196;49.428;10.906;2022-12-18T14:50:38;-1.90;99.90
16180;DHT22;8196;49.428;10.906;2022-12-18T14:53:05;-1.90;99.90
16180;DHT22;8196;49.428;10.906;2022-12-18T14:55:32;-2.20;99.90
16180;DHT22;8196;49.428;10.906;2022-12-18T14:57:58;-2.40;99.90
16180;DHT22;8196;49.428;10.906;2022-12-18T15:00:26;-2.60;99.90
16180;DHT22;8196;49.428;10.906;2022-12-18T15:02:54;-2.50;99.90
16180;DHT22;8196;49.428;10.906;2022-12-18T15:05:30;-2.60;99.90
16180;DHT22;8196;49.428;10.906;2022-12-18T15:07:59;-2.70;99.90
16180;DHT22;8196;49.428;10.906;2022-12-18T15:10:29;-3.00;99.90
16180;DHT22;8196;49.428;10.906;2022-12-18T15:21:03;-3.20;99.90
16180;DHT22;8196;49.428;10.906;2022-12-18T15:26:13;-3.10;99.90
16180;DHT22;8196;49.428;10.906;2022-12-18T15:28:59;-3.10;99.90
16180;DHT22;8196;49.428;10.906;2022-12-18T15:31:31;-3.30;99.90
16180;DHT22;8196;49.428;10.906;2022-12-18T15:34:09;-3.40;99.90
16180;DHT22;8196;49.428;10.906;2022-12-18T15:36:36;-3.20;99.90
16180;DHT22;8196;49.428;10.906;2022-12-18T15:39:03;-3.70;99.90
16180;DHT22;8196;49.428;10.906;2022-12-18T15:41:34;-3.30;99.90
16180;DHT22;8196;49.428;10.906;2022-12-18T15:44:02;-3.50;99.90
16180;DHT22;8196;49.428;10.906;2022-12-18T15:46:30;-3.50;99.90
16180;DHT22;8196;49.428;10.906;2022-12-18T15:48:58;-3.50;99.90
16180;DHT22;8196;49.428;10.906;2022-12-18T15:51:33;-3.70;99.90
16180;DHT22;8196;49.428;10.906;2022-12-18T15:54:03;-3.70;99.90
16180;DHT22;8196;49.428;10.906;2022-12-18T15:56:31;-4.50;99.90
16180;DHT22;8196;49.428;10.906;2022-12-18T15:59:19;-3.80;99.90
16180;DHT22;8196;49.428;10.906;2022-12-18T16:01:49;-3.80;99.90
16180;DHT22;8196;49.428;10.906;2022-12-18T16:04:19;-3.90;99.90
16180;DHT22;8196;49.428;10.906;2022-12-18T16:06:47;-3.90;99.90
16180;DHT22;8196;49.428;10.906;2022-12-18T16:09:35;-4.00;99.90
16180;DHT22;8196;49.428;10.906;2022-12-18T16:12:15;-4.20;99.90
16180;DHT22;8196;49.428;10.906;2022-12-18T16:14:43;-4.10;99.90
16180;DHT22;8196;49.428;10.906;2022-12-18T16:17:12;-4.00;99.90
16180;DHT22;8196;49.428;10.906;2022-12-18T16:19:39;-4.10;99.90
16180;DHT22;8196;49.428;10.906;2022-12-18T16:22:18;-4.20;99.90
16180;DHT22;8196;49.428;10.906;2022-12-18T16:24:46;-4.50;99.90
16180;DHT22;8196;49.428;10.906;2022-12-18T16:27:13;-4.60;99.90
16180;DHT22;8196;49.428;10.906;2022-12-18T16:29:39;-4.20;99.90
16180;DHT22;8196;49.428;10.906;2022-12-18T16:32:06;-4.30;99.90
16180;DHT22;8196;49.428;10.906;2022-12-18T16:34:35;-4.70;99.90
16180;DHT22;8196;49.428;10.906;2022-12-18T16:37:04;-4.30;99.90
16180;DHT22;8196;49.428;10.906;2022-12-18T16:39:33;-4.40;99.90
16180;DHT22;8196;49.428;10.906;2022-12-18T16:42:03;-4.40;99.90
16180;DHT22;8196;49.428;10.906;2022-12-18T16:44:32;-4.40;99.90
16180;DHT22;8196;49.428;10.906;2022-12-18T16:47:00;-4.70;99.90
16180;DHT22;8196;49.428;10.906;2022-12-18T16:49:29;-4.40;99.90
16180;DHT22;8196;49.428;10.906;2022-12-18T16:51:55;-4.50;99.90
16180;DHT22;8196;49.428;10.906;2022-12-18T16:54:23;-4.30;99.90
16180;DHT22;8196;49.428;10.906;2022-12-18T16:56:50;-4.40;99.90
16180;DHT22;8196;49.428;10.906;2022-12-18T16:59:18;-4.40;99.90
16180;DHT22;8196;49.428;10.906;2022-12-18T17:01:46;-4.50;99.90
16180;DHT22;8196;49.428;10.906;2022-12-18T17:04:13;-4.50;99.90
16180;DHT22;8196;49.428;10.906;2022-12-18T17:06:42;-4.50;99.90
16180;DHT22;8196;49.428;10.906;2022-12-18T17:09:11;-4.10;99.90
16180;DHT22;8196;49.428;10.906;2022-12-18T17:11:40;-4.00;99.90
16180;DHT22;8196;49.428;10.906;2022-12-18T17:14:10;-4.00;99.90
16180;DHT22;8196;49.428;10.906;2022-12-18T17:16:38;-4.30;99.90
16180;DHT22;8196;49.428;10.906;2022-12-18T17:19:06;-4.00;99.90
16180;DHT22;8196;49.428;10.906;2022-12-18T17:21:41;-4.10;99.90
16180;DHT22;8196;49.428;10.906;2022-12-18T17:24:08;-4.30;99.90
16180;DHT22;8196;49.428;10.906;2022-12-18T17:26:36;-3.90;99.90
16180;DHT22;8196;49.428;10.906;2022-12-18T17:29:03;-4.30;99.90
16180;DHT22;8196;49.428;10.906;2022-12-18T17:31:30;-4.00;99.90
16180;DHT22;8196;49.428;10.906;2022-12-18T17:33:57;-3.80;99.90
16180;DHT22;8196;49.428;10.906;2022-12-18T17:36:24;-3.90;99.90
16180;DHT22;8196;49.428;10.906;2022-12-18T17:38:56;-4.20;99.90
16180;DHT22;8196;49.428;10.906;2022-12-18T17:41:24;-4.20;99.90
16180;DHT22;8196;49.428;10.906;2022-12-18T17:43:52;-3.90;99.90
16180;DHT22;8196;49.428;10.906;2022-12-18T17:46:20;-4.30;99.90
16180;DHT22;8196;49.428;10.906;2022-12-18T17:48:47;-4.30;99.90
16180;DHT22;8196;49.428;10.906;2022-12-18T17:51:15;-4.60;99.90
16180;DHT22;8196;49.428;10.906;2022-12-18T17:53:42;-4.40;99.90
16180;DHT22;8196;49.428;10.906;2022-12-18T17:56:14;-4.70;99.90
16180;DHT22;8196;49.428;10.906;2022-12-18T17:58:42;-4.70;99.90
16180;DHT22;8196;49.428;10.906;2022-12-18T18:01:12;-4.70;99.90
16180;DHT22;8196;49.428;10.906;2022-12-18T18:03:43;-4.80;99.90
16180;DHT22;8196;49.428;10.906;2022-12-18T18:06:13;-4.40;99.90
16180;DHT22;8196;49.428;10.906;2022-12-18T18:08:41;-4.80;99.90
16180;DHT22;8196;49.428;10.906;2022-12-18T18:11:12;-4.80;99.90
16180;DHT22;8196;49.428;10.906;2022-12-18T18:13:59;-4.90;99.90
16180;DHT22;8196;49.428;10.906;2022-12-18T18:16:36;-4.70;99.90
16180;DHT22;8196;49.428;10.906;2022-12-18T18:19:06;-4.80;99.90
16180;DHT22;8196;49.428;10.906;2022-12-18T18:21:36;-4.60;99.90
16180;DHT22;8196;49.428;10.906;2022-12-18T18:24:04;-4.30;99.90
16180;DHT22;8196;49.428;10.906;2022-12-18T18:26:32;-4.40;99.90
16180;DHT22;8196;49.428;10.906;2022-12-18T18:29:01;-4.70;99.90
16180;DHT22;8196;49.428;10.906;2022-12-18T18:31:31;-4.30;99.90
16180;DHT22;8196;49.428;10.906;2022-12-18T18:34:00;-4.70;99.90
16180;DHT22;8196;49.428;10.906;2022-12-18T18:36:28;-4.60;99.90
16180;DHT22;8196;49.428;10.906;2022-12-18T18:38:58;-4.30;99.90
16180;DHT22;8196;49.428;10.906;2022-12-18T18:41:26;-4.40;99.90
16180;DHT22;8196;49.428;10.906;2022-12-18T18:43:54;-4.40;99.90
16180;DHT22;8196;49.428;10.906;2022-12-18T18:46:22;-4.40;99.90
16180;DHT22;8196;49.428;10.906;2022-12-18T18:48:49;-4.40;99.90
16180;DHT22;8196;49.428;10.906;2022-12-18T18:51:17;-4.50;99.90
16180;DHT22;8196;49.428;10.906;2022-12-18T18:53:48;-4.40;99.90
16180;DHT22;8196;49.428;10.906;2022-12-18T18:56:18;-4.60;99.90
16180;DHT22;8196;49.428;10.906;2022-12-18T18:59:05;-4.40;99.90
16180;DHT22;8196;49.428;10.906;2022-12-18T19:01:32;-4.70;99.90
16180;DHT22;8196;49.428;10.906;2022-12-18T19:03:59;-4.20;99.90
16180;DHT22;8196;49.428;10.906;2022-12-18T19:06:29;-4.50;99.90
16180;DHT22;8196;49.428;10.906;2022-12-18T19:08:57;-4.20;99.90
16180;DHT22;8196;49.428;10.906;2022-12-18T19:11:25;-4.50;99.90
16180;DHT22;8196;49.428;10.906;2022-12-18T19:14:13;-4.40;99.90
16180;DHT22;8196;49.428;10.906;2022-12-18T19:16:40;-4.50;99.90
16180;DHT22;8196;49.428;10.906;2022-12-18T19:19:08;-4.50;99.90
16180;DHT22;8196;49.428;10.906;2022-12-18T19:21:35;-4.20;99.90
16180;DHT22;8196;49.428;10.906;2022-12-18T19:24:04;-4.60;99.90
16180;DHT22;8196;49.428;10.906;2022-12-18T19:26:31;-4.50;99.90
16180;DHT22;8196;49.428;10.906;2022-12-18T19:29:03;-4.10;99.90
16180;DHT22;8196;49.428;10.906;2022-12-18T19:31:30;-4.40;99.90
16180;DHT22;8196;49.428;10.906;2022-12-18T19:34:03;-4.10;99.90
16180;DHT22;8196;49.428;10.906;2022-12-18T19:36:32;-4.10;99.90
16180;DHT22;8196;49.428;10.906;2022-12-18T19:39:00;-4.10;99.90
16180;DHT22;8196;49.428;10.906;2022-12-18T19:41:27;-3.90;99.90
16180;DHT22;8196;49.428;10.906;2022-12-18T19:43:56;-4.00;99.90
16180;DHT22;8196;49.428;10.906;2022-12-18T19:46:23;-3.80;99.90
16180;DHT22;8196;49.428;10.906;2022-12-18T19:48:51;-3.90;99.90
16180;DHT22;8196;49.428;10.906;2022-12-18T19:51:21;-4.10;99.90
16180;DHT22;8196;49.428;10.906;2022-12-18T19:53:49;-4.10;99.90
16180;DHT22;8196;49.428;10.906;2022-12-18T19:56:24;-3.80;99.90
16180;DHT22;8196;49.428;10.906;2022-12-18T19:58:53;-4.10;99.90
16180;DHT22;8196;49.428;10.906;2022-12-18T20:01:21;-3.70;99.90
16180;DHT22;8196;49.428;10.906;2022-12-18T20:03:49;-3.60;99.90
16180;DHT22;8196;49.428;10.906;2022-12-18T20:08:48;-3.90;99.90
16180;DHT22;8196;49.428;10.906;2022-12-18T20:11:16;-3.50;99.90
16180;DHT22;8196;49.428;10.906;2022-12-18T20:13:42;-3.70;99.90
16180;DHT22;8196;49.428;10.906;2022-12-18T20:16:10;-3.60;99.90
16180;DHT22;8196;49.428;10.906;2022-12-18T20:18:38;-3.50;99.90
16180;DHT22;8196;49.428;10.906;2022-12-18T20:21:05;-3.70;99.90
16180;DHT22;8196;49.428;10.906;2022-12-18T20:23:39;-3.80;99.90
16180;DHT22;8196;49.428;10.906;2022-12-18T20:26:06;-3.70;99.90
16180;DHT22;8196;49.428;10.906;2022-12-18T20:28:34;-3.50;99.90
16180;DHT22;8196;49.428;10.906;2022-12-18T20:31:04;-3.30;99.90
16180;DHT22;8196;49.428;10.906;2022-12-18T20:33:32;-3.50;99.90
16180;DHT22;8196;49.428;10.906;2022-12-18T20:36:00;-3.80;99.90
16180;DHT22;8196;49.428;10.906;2022-12-18T20:38:29;-3.80;99.90
16180;DHT22;8196;49.428;10.906;2022-12-18T20:40:57;-3.70;99.90
16180;DHT22;8196;49.428;10.906;2022-12-18T20:43:26;-3.60;99.90
16180;DHT22;8196;49.428;10.906;2022-12-18T20:46:01;-3.80;99.90
16180;DHT22;8196;49.428;10.906;2022-12-18T20:48:29;-3.60;99.90
16180;DHT22;8196;49.428;10.906;2022-12-18T20:50:59;-3.70;99.90
16180;DHT22;8196;49.428;10.906;2022-12-18T20:53:29;-3.50;99.90
16180;DHT22;8196;49.428;10.906;2022-12-18T20:55:56;-3.60;99.90
16180;DHT22;8196;49.428;10.906;2022-12-18T20:58:23;-3.80;99.90
16180;DHT22;8196;49.428;10.906;2022-12-18T21:01:00;-3.40;99.90
16180;DHT22;8196;49.428;10.906;2022-12-18T21:03:27;-3.50;99.90
16180;DHT22;8196;49.428;10.906;2022-12-18T21:05:54;-3.60;99.90
16180;DHT22;8196;49.428;10.906;2022-12-18T21:08:21;-3.30;99.90
16180;DHT22;8196;49.428;10.906;2022-12-18T21:10:47;-3.70;99.90
16180;DHT22;8196;49.428;10.906;2022-12-18T21:13:15;-3.30;99.90
16180;DHT22;8196;49.428;10.906;2022-12-18T21:15:44;-3.70;99.90
16180;DHT22;8196;49.428;10.906;2022-12-18T21:18:10;-3.60;99.90
16180;DHT22;8196;49.428;10.906;2022-12-18T21:20:37;-3.50;99.90
16180;DHT22;8196;49.428;10.906;2022-12-18T21:23:04;-3.40;99.90
16180;DHT22;8196;49.428;10.906;2022-12-18T21:25:43;-3.50;99.90
16180;DHT22;8196;49.428;10.906;2022-12-18T21:28:11;-3.80;99.90
16180;DHT22;8196;49.428;10.906;2022-12-18T21:30:37;-3.80;99.90
16180;DHT22;8196;49.428;10.906;2022-12-18T21:33:04;-3.60;99.90
16180;DHT22;8196;49.428;10.906;2022-12-18T21:35:31;-4.00;99.90
16180;DHT22;8196;49.428;10.906;2022-12-18T21:40:28;-4.00;99.90
16180;DHT22;8196;49.428;10.906;2022-12-18T21:42:55;-3.80;99.90
16180;DHT22;8196;49.428;10.906;2022-12-18T21:45:43;-3.60;99.90
16180;DHT22;8196;49.428;10.906;2022-12-18T21:48:10;-4.00;99.90
16180;DHT22;8196;49.428;10.906;2022-12-18T21:50:37;-4.00;99.90
16180;DHT22;8196;49.428;10.906;2022-12-18T21:53:04;-3.70;99.90
16180;DHT22;8196;49.428;10.906;2022-12-18T21:55:31;-4.10;99.90
16180;DHT22;8196;49.428;10.906;2022-12-18T21:57:57;-3.90;99.90
16180;DHT22;8196;49.428;10.906;2022-12-18T22:00:24;-3.60;99.90
16180;DHT22;8196;49.428;10.906;2022-12-18T22:02:51;-3.90;99.90
16180;DHT22;8196;49.428;10.906;2022-12-18T22:05:37;-3.70;99.90
16180;DHT22;8196;49.428;10.906;2022-12-18T22:08:04;-3.30;99.90
16180;DHT22;8196;49.428;10.906;2022-12-18T22:10:32;-3.40;99.90
16180;DHT22;8196;49.428;10.906;2022-12-18T22:12:59;-3.20;99.90
16180;DHT22;8196;49.428;10.906;2022-12-18T22:15:26;-3.60;99.90
16180;DHT22;8196;49.428;10.906;2022-12-18T22:17:53;-3.40;99.90
16180;DHT22;8196;49.428;10.906;2022-12-18T22:20:26;-3.00;99.90
16180;DHT22;8196;49.428;10.906;2022-12-18T22:22:52;-3.40;99.90
16180;DHT22;8196;49.428;10.906;2022-12-18T22:25:19;-2.90;99.90
16180;DHT22;8196;49.428;10.906;2022-12-18T22:27:46;-2.90;99.90
16180;DHT22;8196;49.428;10.906;2022-12-18T22:30:33;-2.90;99.90
16180;DHT22;8196;49.428;10.906;2022-12-18T22:33:00;-3.30;99.90
16180;DHT22;8196;49.428;10.906;2022-12-18T22:35:26;-2.90;99.90
16180;DHT22;8196;49.428;10.906;2022-12-18T22:37:53;-3.10;99.90
16180;DHT22;8196;49.428;10.906;2022-12-18T22:40:22;-3.00;99.90
16180;DHT22;8196;49.428;10.906;2022-12-18T22:42:53;-3.10;99.90
16180;DHT22;8196;49.428;10.906;2022-12-18T22:45:21;-3.10;99.90
16180;DHT22;8196;49.428;10.906;2022-12-18T22:47:48;-3.00;99.90
16180;DHT22;8196;49.428;10.906;2022-12-18T22:50:15;-2.90;99.90
16180;DHT22;8196;49.428;10.906;2022-12-18T22:52:42;-2.60;99.90
16180;DHT22;8196;49.428;10.906;2022-12-18T22:55:08;-3.10;99.90
16180;DHT22;8196;49.428;10.906;2022-12-18T22:57:35;-2.70;99.90
16180;DHT22;8196;49.428;10.906;2022-12-18T23:00:05;-2.70;99.90
16180;DHT22;8196;49.428;10.906;2022-12-18T23:02:31;-2.90;99.90
16180;DHT22;8196;49.428;10.906;2022-12-18T23:04:58;-2.90;99.90
16180;DHT22;8196;49.428;10.906;2022-12-18T23:09:52;-2.80;99.90
16180;DHT22;8196;49.428;10.906;2022-12-18T23:12:26;-2.80;99.90
16180;DHT22;8196;49.428;10.906;2022-12-18T23:14:53;-2.70;99.90
16180;DHT22;8196;49.428;10.906;2022-12-18T23:17:20;-3.10;99.90
16180;DHT22;8196;49.428;10.906;2022-12-18T23:19:46;-2.90;99.90
16180;DHT22;8196;49.428;10.906;2022-12-18T23:22:15;-2.70;99.90
16180;DHT22;8196;49.428;10.906;2022-12-18T23:24:42;-3.00;99.90
16180;DHT22;8196;49.428;10.906;2022-12-18T23:27:09;-2.80;99.90
16180;DHT22;8196;49.428;10.906;2022-12-18T23:29:38;-2.80;99.90
16180;DHT22;8196;49.428;10.906;2022-12-18T23:32:05;-2.70;99.90
16180;DHT22;8196;49.428;10.906;2022-12-18T23:34:31;-2.70;99.90
16180;DHT22;8196;49.428;10.906;2022-12-18T23:36:58;-2.70;99.90
16180;DHT22;8196;49.428;10.906;2022-12-18T23:39:26;-2.50;99.90
16180;DHT22;8196;49.428;10.906;2022-12-18T23:41:59;-2.60;99.90
16180;DHT22;8196;49.428;10.906;2022-12-18T23:44:26;-2.80;99.90
16180;DHT22;8196;49.428;10.906;2022-12-18T23:46:53;-2.70;99.90
16180;DHT22;8196;49.428;10.906;2022-12-18T23:49:20;-2.70;99.90
16180;DHT22;8196;49.428;10.906;2022-12-18T23:51:47;-2.70;99.90
16180;DHT22;8196;49.428;10.906;2022-12-18T23:54:13;-2.80;99.90
16180;DHT22;8196;49.428;10.906;2022-12-18T23:56:40;-3.00;99.90
16180;DHT22;8196;49.428;10.906;2022-12-18T23:59:07;-2.80;99.90
